Portada
METAR-TAF:

METAR-TAF

Aeroports :

Najaf, Iraq

latitud: 31-59-23N, longitud: 44-24-15E, altitud: 31 m

Observació

L'informe es va fer fa 56 minuts, a les 14:00 UTC
Vent calma
Temperatura 22°C
Humitat 33%
Pressió 1010 hPa
Visibilitat: 8000 m

METAR: ORNI 261400Z 00000KT 8000 NSC 22/05 Q1010 NOSIG

Hora: 17:56 (14:56 UTC)

Pronòstic

L'informe es va fer fa 4 hores i 56 minuts, a les 10:00 UTC
Pronòstic vàlid del 26 a les 12 UTC al 27 a les 12 UTC
Vent 10 kt del Oest
Visibilitat: 8000 m
Evolucionant progressivament
l' 26 a les 18 UTC al 26 a les 21 UTC
Vent 4 kt amb direcció variable

TAF: ORNI 261000Z 2612/2712 27010KT 8000 NSC BECMG 2618/2621 VRB04KT

Observacions i pronòstics meteorològics de més de 4000 aeroports (METAR i TAF).

Les estacions disponibles són els punts grocs i vermells al mapa.

Posi el ratolí al punt desitjat per veure el nom de l'estació.

Feu clic per veure les observacions i els pronòstics meteorològics.

Per canviar el mapa: feu clic els botons verds amb una creu de color negre per apropar; al botó verd amb un guió per allunyar la imatge; o en les fletxes verdes per a mapes adjacents.


METAR-TAF: